Time;durP1;ratioP1;P1;durP2;ratioP2;P2;SDS_P1;SDS_P2;PMS_P1;PMS_P2;Temp;Humidity;BMP_temperature;BMP_pressure;BME280_temperature;BME280_humidity;BME280_pressure;Samples;Min_cycle;Max_cycle;Signal;HPM_P1;HPM_P2
2023/04/25 00:00:39;;;;;;;1.98;1.10;;;;;;;10.82;78.85;98626.44;5052209;28;20025;-75
2023/04/25 00:03:06;;;;;;;2.42;1.40;;;;;;;10.85;78.71;98619.25;5051936;28;20423;-76
2023/04/25 00:05:31;;;;;;;3.08;1.30;;;;;;;10.84;78.72;98616.75;5052037;28;20444;-75
2023/04/25 00:07:57;;;;;;;1.25;1.13;;;;;;;10.86;78.84;98614.88;5051909;28;20060;-76
2023/04/25 00:10:23;;;;;;;1.65;1.30;;;;;;;10.83;78.91;98631.56;5052141;28;20066;-75
2023/04/25 00:12:49;;;;;;;1.25;1.15;;;;;;;10.84;78.64;98629.78;5051815;28;20029;-76
2023/04/25 00:15:14;;;;;;;2.58;1.10;;;;;;;10.73;78.74;98622.66;5052060;28;20028;-76
2023/04/25 00:17:40;;;;;;;3.15;1.08;;;;;;;10.80;78.90;98626.53;5052215;28;20536;-76
2023/04/25 00:20:08;;;;;;;3.47;1.25;;;;;;;10.65;78.65;98611.88;5051643;28;20056;-76
2023/04/25 00:22:34;;;;;;;3.03;1.88;;;;;;;10.65;78.50;98604.06;5051833;28;20021;-76
2023/04/25 00:25:00;;;;;;;1.10;1.00;;;;;;;10.69;78.81;98618.56;5051755;28;20050;-76
2023/04/25 00:27:26;;;;;;;0.93;0.90;;;;;;;10.83;78.37;98634.16;5051617;28;20555;-76
2023/04/25 00:29:51;;;;;;;3.03;1.30;;;;;;;10.74;78.65;98608.69;5051677;28;20025;-75
2023/04/25 00:32:17;;;;;;;1.70;1.10;;;;;;;10.91;78.46;98634.50;5051733;28;20434;-75
2023/04/25 00:34:42;;;;;;;1.70;1.23;;;;;;;10.82;78.48;98624.66;5051926;28;20021;-76
2023/04/25 00:37:07;;;;;;;2.30;1.42;;;;;;;10.89;78.22;98628.56;5051456;28;20033;-76
2023/04/25 00:39:33;;;;;;;2.63;1.30;;;;;;;10.85;78.61;98642.69;5051765;28;20021;-75
2023/04/25 00:41:59;;;;;;;2.22;1.50;;;;;;;10.85;78.88;98644.47;5051536;28;20388;-76
2023/04/25 00:44:26;;;;;;;1.70;1.30;;;;;;;10.88;78.88;98642.50;5051716;28;20021;-75
2023/04/25 00:46:52;;;;;;;3.83;1.90;;;;;;;10.84;78.72;98630.63;5051407;28;20108;-75
2023/04/25 00:49:17;;;;;;;1.77;1.35;;;;;;;10.80;78.50;98630.91;5051579;28;20036;-76
2023/04/25 00:51:44;;;;;;;1.45;1.35;;;;;;;10.75;78.69;98639.03;5051800;28;20377;-76
2023/04/25 00:54:11;;;;;;;1.73;1.38;;;;;;;10.70;78.93;98634.09;5050433;28;20037;-75
2023/04/25 00:56:37;;;;;;;2.72;1.35;;;;;;;10.81;79.00;98649.03;5051940;28;20495;-76
2023/04/25 00:59:03;;;;;;;2.28;1.23;;;;;;;10.54;78.84;98609.13;5051416;28;20025;-76
2023/04/25 01:01:28;;;;;;;1.50;1.00;;;;;;;10.66;78.61;98637.84;5051481;28;20025;-76
2023/04/25 01:03:54;;;;;;;1.33;1.23;;;;;;;10.58;78.64;98650.50;5049887;28;20370;-76
2023/04/25 01:06:19;;;;;;;1.40;1.30;;;;;;;10.66;78.90;98652.59;5051330;28;20104;-76
2023/04/25 01:08:45;;;;;;;4.07;1.10;;;;;;;10.51;78.93;98636.19;5051591;28;20025;-76
2023/04/25 01:11:10;;;;;;;1.15;1.05;;;;;;;10.62;78.86;98654.59;5051652;28;20025;-75
2023/04/25 01:13:36;;;;;;;3.13;1.40;;;;;;;10.63;79.33;98650.22;5051419;28;20017;-76
2023/04/25 01:16:02;;;;;;;2.13;1.40;;;;;;;10.57;79.34;98651.41;5051115;28;20025;-75
2023/04/25 01:18:28;;;;;;;1.65;1.45;;;;;;;10.38;79.21;98624.88;5051237;28;20059;-76
2023/04/25 01:20:54;;;;;;;2.60;1.48;;;;;;;10.52;79.28;98652.63;5051258;28;20053;-76
2023/04/25 01:23:20;;;;;;;2.38;1.33;;;;;;;10.36;79.07;98624.13;5051439;28;20070;-76
2023/04/25 01:25:47;;;;;;;1.48;1.33;;;;;;;10.43;79.60;98641.03;5051525;28;20477;-75
2023/04/25 01:28:13;;;;;;;3.65;1.30;;;;;;;10.39;78.94;98642.97;5051284;28;20063;-76
2023/04/25 01:30:39;;;;;;;2.85;1.58;;;;;;;10.40;79.20;98647.25;5051244;28;20506;-76
2023/04/25 01:33:05;;;;;;;2.47;1.30;;;;;;;10.27;79.38;98635.09;5051177;28;20029;-75
2023/04/25 01:35:31;;;;;;;4.20;1.52;;;;;;;10.32;79.03;98641.69;5054287;28;20021;-76
2023/04/25 01:37:57;;;;;;;2.65;1.40;;;;;;;10.40;79.00;98656.84;5054790;28;20025;-76
2023/04/25 01:40:24;;;;;;;2.88;1.40;;;;;;;10.33;78.61;98645.16;5054748;28;20037;-76
2023/04/25 01:42:51;;;;;;;1.63;1.52;;;;;;;10.26;78.75;98647.28;5054585;28;20108;-76
2023/04/25 01:45:17;;;;;;;1.60;1.50;;;;;;;10.07;78.85;98644.06;5054665;28;20033;-76
2023/04/25 01:47:43;;;;;;;2.72;1.77;;;;;;;10.16;79.18;98662.59;5054558;28;20484;-75
2023/04/25 01:50:10;;;;;;;1.80;1.65;;;;;;;10.20;79.45;98671.06;5054534;28;20040;-75
2023/04/25 01:52:36;;;;;;;1.67;1.58;;;;;;;10.07;79.88;98654.47;5054669;28;20044;-76
2023/04/25 01:55:02;;;;;;;4.47;2.22;;;;;;;9.99;79.65;98642.78;5054248;28;20454;-76
2023/04/25 01:57:27;;;;;;;2.90;1.95;;;;;;;10.13;79.86;98659.34;5054527;28;20388;-75
2023/04/25 01:59:59;;;;;;;1.90;1.80;;;;;;;9.93;79.52;98648.34;5054103;28;20524;-75
2023/04/25 02:02:25;;;;;;;2.70;1.90;;;;;;;9.90;79.72;98638.16;5054556;28;20373;-75
2023/04/25 02:04:51;;;;;;;2.50;1.80;;;;;;;10.01;79.80;98650.50;5054210;28;20032;-75
2023/04/25 02:07:16;;;;;;;6.25;2.00;;;;;;;9.95;79.69;98654.31;5054292;28;20040;-75
2023/04/25 02:09:42;;;;;;;2.33;2.00;;;;;;;10.04;80.02;98660.72;5054305;28;20025;-76
2023/04/25 02:12:08;;;;;;;4.40;2.20;;;;;;;9.86;79.80;98638.41;5053910;28;20021;-75
2023/04/25 02:14:34;;;;;;;2.63;2.10;;;;;;;9.93;79.58;98652.72;5054051;28;20033;-76
2023/04/25 02:16:59;;;;;;;2.47;2.28;;;;;;;9.87;79.80;98656.53;5053762;28;20035;-75
2023/04/25 02:19:25;;;;;;;3.20;2.53;;;;;;;9.78;80.06;98654.47;5054325;28;20025;-76
2023/04/25 02:21:50;;;;;;;2.95;2.00;;;;;;;9.82;79.96;98650.78;5054299;28;20093;-76
2023/04/25 02:24:15;;;;;;;2.85;2.65;;;;;;;9.80;79.90;98654.38;5054135;28;20049;-75
2023/04/25 02:26:41;;;;;;;2.83;2.35;;;;;;;9.79;79.65;98645.75;5053956;28;20419;-76
2023/04/25 02:29:06;;;;;;;3.05;2.53;;;;;;;9.80;79.88;98664.78;5053631;28;20082;-75
2023/04/25 02:31:32;;;;;;;2.45;2.25;;;;;;;9.59;80.53;98635.69;5054044;28;20031;-76
2023/04/25 02:33:57;;;;;;;2.83;2.20;;;;;;;9.70;80.66;98661.91;5054065;28;20063;-75
2023/04/25 02:36:23;;;;;;;2.72;2.28;;;;;;;9.62;80.56;98648.50;5053864;28;20029;-75
2023/04/25 02:38:50;;;;;;;3.42;2.67;;;;;;;9.63;81.27;98661.41;5053632;28;20162;-75
2023/04/25 02:41:15;;;;;;;4.32;2.65;;;;;;;9.63;80.93;98652.78;5053403;28;20033;-75
2023/04/25 02:43:40;;;;;;;4.20;3.08;;;;;;;9.54;81.33;98648.94;5053420;28;20036;-76
2023/04/25 02:46:06;;;;;;;4.53;2.90;;;;;;;9.55;81.11;98650.63;5053500;28;20036;-75
2023/04/25 02:48:31;;;;;;;2.75;2.50;;;;;;;9.47;81.69;98650.22;5053543;28;20036;-75
2023/04/25 02:50:56;;;;;;;2.95;2.75;;;;;;;9.33;81.81;98635.44;5053324;28;20055;-76
2023/04/25 02:53:22;;;;;;;2.55;2.35;;;;;;;9.28;81.96;98640.06;5053476;28;20079;-76
2023/04/25 02:55:47;;;;;;;3.40;3.10;;;;;;;9.37;82.04;98657.72;5053278;28;20078;-76
2023/04/25 02:58:12;;;;;;;3.30;3.00;;;;;;;9.29;82.47;98631.34;5053041;28;20025;-75
2023/04/25 03:00:38;;;;;;;4.13;2.97;;;;;;;9.31;81.96;98644.22;5053792;28;20025;-76
2023/04/25 03:03:03;;;;;;;3.30;3.00;;;;;;;9.28;82.33;98629.69;5053191;28;20116;-76
2023/04/25 03:05:28;;;;;;;3.78;3.03;;;;;;;9.25;81.87;98635.03;5053289;28;20353;-75
2023/04/25 03:07:54;;;;;;;3.50;3.00;;;;;;;9.27;82.32;98627.16;5052920;28;20044;-76
2023/04/25 03:10:19;;;;;;;4.63;3.33;;;;;;;9.25;81.95;98622.88;5053131;28;20031;-75
2023/04/25 03:12:44;;;;;;;4.85;3.38;;;;;;;9.36;82.08;98645.66;5053285;28;20025;-76
2023/04/25 03:15:10;;;;;;;4.10;2.97;;;;;;;9.25;82.03;98630.69;5052758;28;20127;-76
2023/04/25 03:17:35;;;;;;;3.75;3.42;;;;;;;9.23;82.32;98645.53;5053099;28;20433;-76
2023/04/25 03:20:00;;;;;;;5.45;4.25;;;;;;;9.24;82.27;98649.78;5052782;28;20025;-75
2023/04/25 03:22:26;;;;;;;3.97;3.40;;;;;;;9.29;82.23;98651.28;5052969;28;20033;-76
2023/04/25 03:24:51;;;;;;;5.68;4.28;;;;;;;9.24;82.39;98657.59;5052821;28;20017;-75
2023/04/25 03:27:17;;;;;;;6.18;3.88;;;;;;;9.11;82.74;98625.44;5052244;28;20052;-75
2023/04/25 03:29:43;;;;;;;5.00;4.32;;;;;;;8.99;82.25;98619.19;5052623;28;20118;-76
2023/04/25 03:32:08;;;;;;;5.80;3.83;;;;;;;9.21;82.51;98654.31;5052621;28;20047;-76
2023/04/25 03:34:33;;;;;;;5.05;4.43;;;;;;;9.11;82.26;98638.44;5052700;28;20020;-76
2023/04/25 03:36:59;;;;;;;6.15;4.22;;;;;;;9.16;82.39;98657.19;5052591;28;20028;-76
2023/04/25 03:39:25;;;;;;;7.88;4.78;;;;;;;9.18;82.35;98660.53;5052526;28;20155;-75
2023/04/25 03:41:50;;;;;;;7.18;4.32;;;;;;;9.06;82.67;98642.19;5052556;28;20112;-76
2023/04/25 03:44:15;;;;;;;6.75;4.65;;;;;;;9.17;83.09;98669.25;5052220;28;20048;-76
2023/04/25 03:46:41;;;;;;;6.10;4.78;;;;;;;9.15;82.62;98660.72;5052474;28;20029;-76
2023/04/25 03:49:06;;;;;;;7.25;4.32;;;;;;;9.01;83.10;98642.47;5052372;28;20033;-75
2023/04/25 03:51:32;;;;;;;5.80;4.68;;;;;;;9.06;82.48;98643.06;5052446;28;20021;-75
2023/04/25 03:53:57;;;;;;;6.07;4.93;;;;;;;9.18;82.79;98664.88;5052145;28;20482;-76
2023/04/25 03:56:22;;;;;;;5.40;4.53;;;;;;;9.01;82.63;98639.84;5052005;28;20029;-76
2023/04/25 03:58:48;;;;;;;5.43;4.53;;;;;;;9.11;82.93;98664.41;5051977;28;20043;-75
2023/04/25 04:01:13;;;;;;;6.75;5.13;;;;;;;9.06;82.76;98665.56;5052111;28;20465;-75
2023/04/25 04:03:39;;;;;;;7.70;5.80;;;;;;;9.03;82.87;98656.22;5052165;28;20365;-75
2023/04/25 04:06:05;;;;;;;7.50;5.35;;;;;;;9.05;83.03;98674.28;5051927;28;20025;-75
2023/04/25 04:08:32;;;;;;;7.57;6.18;;;;;;;9.12;82.77;98678.22;5051886;28;20056;-75
2023/04/25 04:10:58;;;;;;;7.07;5.75;;;;;;;9.10;83.21;98667.06;5051598;28;20041;-75
2023/04/25 04:13:25;;;;;;;6.20;5.60;;;;;;;9.08;82.85;98654.19;5051934;28;20025;-75
2023/04/25 04:15:51;;;;;;;7.55;5.85;;;;;;;9.19;82.83;98679.56;5051941;28;20025;-75
2023/04/25 04:18:16;;;;;;;7.15;5.32;;;;;;;9.31;82.23;98681.44;5051892;28;20393;-75
2023/04/25 04:20:41;;;;;;;6.53;5.47;;;;;;;9.36;82.30;98683.81;5051866;28;20021;-75
2023/04/25 04:23:07;;;;;;;7.93;6.10;;;;;;;9.35;82.33;98685.53;5051883;28;20031;-75
2023/04/25 04:25:32;;;;;;;7.80;6.20;;;;;;;9.32;82.10;98677.13;5051951;28;20021;-75
2023/04/25 04:27:58;;;;;;;6.68;5.80;;;;;;;9.31;82.28;98660.66;5051272;28;20446;-75
2023/04/25 04:30:25;;;;;;;8.23;5.70;;;;;;;9.37;82.07;98675.91;5051535;28;20033;-75
2023/04/25 04:32:51;;;;;;;10.07;5.80;;;;;;;9.44;81.69;98676.41;5051902;28;20056;-74
2023/04/25 04:35:17;;;;;;;7.68;5.15;;;;;;;9.57;81.74;98690.38;5051448;28;20519;-75
2023/04/25 04:37:43;;;;;;;8.98;5.53;;;;;;;9.60;81.12;98678.94;5051690;28;20033;-75
2023/04/25 04:40:09;;;;;;;7.97;5.10;;;;;;;9.61;81.04;98678.03;5051331;28;20032;-75
2023/04/25 04:42:36;;;;;;;6.57;5.57;;;;;;;9.59;80.92;98672.91;5051521;28;20025;-75
2023/04/25 04:45:02;;;;;;;8.30;5.38;;;;;;;9.70;81.04;98700.91;5051533;28;20499;-75
2023/04/25 04:47:30;;;;;;;6.60;5.47;;;;;;;9.63;81.07;98676.16;5051691;28;20018;-75
2023/04/25 04:49:56;;;;;;;6.88;6.05;;;;;;;9.63;80.63;98657.97;5051809;28;20032;-75
2023/04/25 04:52:21;;;;;;;11.00;6.13;;;;;;;9.80;80.02;98672.59;5051479;28;20404;-75
2023/04/25 04:54:47;;;;;;;6.65;5.60;;;;;;;9.96;79.76;98683.75;5051590;28;20113;-75
2023/04/25 04:57:12;;;;;;;7.90;5.88;;;;;;;10.03;79.38;98689.41;5051203;28;20053;-75
2023/04/25 04:59:37;;;;;;;7.30;6.22;;;;;;;10.08;79.06;98690.84;5051619;28;20051;-75
2023/04/25 05:02:03;;;;;;;8.23;6.35;;;;;;;10.09;79.31;98681.25;5051650;28;20051;-74
2023/04/25 05:04:28;;;;;;;6.13;5.53;;;;;;;10.33;78.68;98703.25;5051873;28;20029;-75
2023/04/25 05:06:53;;;;;;;5.38;4.88;;;;;;;10.55;78.34;98704.53;5051365;28;20029;-75
2023/04/25 05:09:19;;;;;;;6.75;5.78;;;;;;;10.62;77.59;98678.03;5052447;28;20431;-75
2023/04/25 05:11:44;;;;;;;6.10;5.60;;;;;;;10.88;76.63;98699.81;5055227;28;20116;-75
2023/04/25 05:14:09;;;;;;;7.10;5.38;;;;;;;10.83;75.63;98683.66;5055199;28;20025;-75
2023/04/25 05:16:35;;;;;;;8.25;5.45;;;;;;;10.90;75.64;98671.91;5055388;28;20035;-75
2023/04/25 05:19:00;;;;;;;5.95;5.38;;;;;;;11.16;75.23;98696.28;5055330;28;20025;-75
2023/04/25 05:21:27;;;;;;;7.25;6.00;;;;;;;11.34;74.61;98699.50;5054898;28;20483;-75
2023/04/25 05:23:54;;;;;;;7.68;6.20;;;;;;;11.49;73.97;98698.47;5055078;28;20481;-75
2023/04/25 05:26:20;;;;;;;7.07;5.75;;;;;;;11.59;73.35;98682.25;5054869;28;20055;-75
2023/04/25 05:28:46;;;;;;;6.38;5.03;;;;;;;11.95;72.59;98700.69;5055262;28;20021;-75
2023/04/25 05:31:11;;;;;;;6.85;5.57;;;;;;;11.91;72.20;98664.47;5054816;28;20070;-75
2023/04/25 05:33:37;;;;;;;10.02;6.30;;;;;;;12.09;71.82;98689.28;5054996;28;20036;-75
2023/04/25 05:36:03;;;;;;;8.43;5.57;;;;;;;11.93;71.61;98667.81;5054672;28;20029;-75
2023/04/25 05:38:28;;;;;;;6.47;4.78;;;;;;;11.91;71.26;98667.91;5054637;28;20495;-75
2023/04/25 05:40:53;;;;;;;8.35;5.20;;;;;;;11.85;71.14;98670.94;5054676;28;20032;-75
2023/04/25 05:43:19;;;;;;;9.32;5.35;;;;;;;11.89;70.77;98676.78;5054706;28;20021;-75
2023/04/25 05:45:44;;;;;;;6.40;5.65;;;;;;;11.95;70.68;98686.81;5054691;28;20025;-75
2023/04/25 05:48:09;;;;;;;6.32;5.00;;;;;;;11.98;70.68;98671.78;5054342;28;20071;-75
2023/04/25 05:50:35;;;;;;;6.10;4.82;;;;;;;12.04;70.80;98667.06;5054592;28;20025;-75
2023/04/25 05:53:00;;;;;;;7.05;5.40;;;;;;;12.26;70.21;98684.69;5054546;28;20098;-75
2023/04/25 05:55:25;;;;;;;7.47;4.72;;;;;;;12.38;69.72;98692.53;5054356;28;20036;-75
2023/04/25 05:57:51;;;;;;;10.25;5.70;;;;;;;12.38;68.96;98686.47;5054652;28;20021;-75
2023/04/25 06:00:16;;;;;;;5.35;4.80;;;;;;;12.38;68.92;98662.97;5054252;28;20112;-75
2023/04/25 06:02:42;;;;;;;8.40;4.80;;;;;;;12.80;68.04;98687.00;5054433;28;20031;-75
2023/04/25 06:05:08;;;;;;;6.03;4.13;;;;;;;13.09;67.59;98684.94;5054259;28;20052;-75
2023/04/25 06:07:33;;;;;;;6.45;4.20;;;;;;;13.31;66.07;98684.22;5054289;28;20048;-75
2023/04/25 06:10:00;;;;;;;7.45;4.40;;;;;;;13.50;65.97;98663.63;5054257;28;20049;-75
2023/04/25 06:12:26;;;;;;;5.82;4.80;;;;;;;13.94;65.44;98678.59;5054153;28;20025;-75
2023/04/25 06:14:51;;;;;;;6.03;4.00;;;;;;;14.07;64.45;98649.69;5054289;28;20025;-75
2023/04/25 06:17:16;;;;;;;6.18;4.53;;;;;;;14.42;64.09;98657.47;5053859;28;20107;-75
2023/04/25 06:19:42;;;;;;;6.40;4.15;;;;;;;14.86;61.88;98681.97;5054031;28;20120;-75
2023/04/25 06:22:07;;;;;;;7.47;4.75;;;;;;;14.87;60.90;98653.94;5053826;28;20502;-75
2023/04/25 06:24:33;;;;;;;7.07;4.60;;;;;;;14.93;60.82;98670.03;5053881;28;20036;-75
2023/04/25 06:26:58;;;;;;;6.95;4.03;;;;;;;14.91;61.22;98665.84;5053649;28;20052;-75
2023/04/25 06:29:24;;;;;;;5.70;4.32;;;;;;;15.07;60.13;98671.53;5053835;28;20044;-75
2023/04/25 06:31:49;;;;;;;5.75;4.55;;;;;;;15.19;60.89;98688.09;5053931;28;20036;-75
2023/04/25 06:34:15;;;;;;;4.93;3.60;;;;;;;15.23;60.67;98666.72;5053652;28;20465;-75
2023/04/25 06:36:41;;;;;;;7.00;4.50;;;;;;;15.68;59.48;98684.09;5053745;28;20426;-75
2023/04/25 06:39:06;;;;;;;4.88;4.38;;;;;;;16.12;58.60;98675.09;5053344;28;20032;-75
2023/04/25 06:41:31;;;;;;;7.22;4.25;;;;;;;16.39;56.42;98669.31;5054106;28;20037;-75
2023/04/25 06:43:57;;;;;;;5.10;4.00;;;;;;;16.77;57.07;98680.94;5054013;28;20364;-76
2023/04/25 06:46:22;;;;;;;4.57;3.35;;;;;;;17.18;55.82;98674.63;5053181;28;20025;-76
2023/04/25 06:48:47;;;;;;;6.30;3.75;;;;;;;17.80;54.00;98672.59;5053678;28;20029;-76
2023/04/25 06:51:13;;;;;;;7.15;3.55;;;;;;;18.61;53.42;98687.88;5053214;28;20029;-76
2023/04/25 06:53:39;;;;;;;5.07;3.45;;;;;;;19.47;51.51;98675.13;5053335;28;20021;-76
2023/04/25 06:56:04;;;;;;;5.90;3.75;;;;;;;20.42;49.01;98663.72;5053538;28;20060;-76
2023/04/25 06:58:30;;;;;;;5.80;3.92;;;;;;;21.25;47.70;98659.56;5053214;28;20025;-76
2023/04/25 07:00:55;;;;;;;4.18;3.70;;;;;;;22.12;46.29;98682.81;5052355;28;20052;-76
2023/04/25 07:03:21;;;;;;;6.13;4.00;;;;;;;22.63;44.56;98670.03;5053058;28;20131;-76
2023/04/25 07:05:46;;;;;;;7.22;3.55;;;;;;;23.12;43.92;98687.56;5053256;28;20036;-76
2023/04/25 07:08:11;;;;;;;6.78;4.07;;;;;;;23.12;43.19;98676.94;5052780;28;20033;-76
2023/04/25 07:10:37;;;;;;;9.30;4.95;;;;;;;22.84;43.18;98674.75;5052985;28;20037;-76
2023/04/25 07:13:03;;;;;;;7.93;4.22;;;;;;;22.82;43.49;98674.09;5053184;28;20025;-76
2023/04/25 07:15:28;;;;;;;7.57;3.90;;;;;;;23.17;42.81;98661.31;5052871;28;20099;-76
2023/04/25 07:17:54;;;;;;;4.57;3.55;;;;;;;23.67;42.25;98662.63;5053321;28;20037;-76
2023/04/25 07:20:19;;;;;;;4.85;3.38;;;;;;;24.35;41.24;98672.25;5052788;28;20087;-76
2023/04/25 07:22:45;;;;;;;4.82;2.80;;;;;;;24.54;40.95;98657.59;5052861;28;20029;-76
2023/04/25 07:25:10;;;;;;;4.80;3.33;;;;;;;24.77;40.13;98668.13;5052531;28;20028;-76
2023/04/25 07:27:35;;;;;;;5.55;3.10;;;;;;;25.04;39.83;98653.28;5052560;28;20052;-76
2023/04/25 07:30:01;;;;;;;5.95;2.92;;;;;;;25.26;39.08;98664.81;5051530;28;20090;-76
2023/04/25 07:32:26;;;;;;;5.20;3.03;;;;;;;25.24;38.77;98656.19;5051857;28;20501;-76
2023/04/25 07:34:52;;;;;;;6.35;2.97;;;;;;;25.55;38.45;98649.72;5052696;28;20024;-76
2023/04/25 07:37:18;;;;;;;4.00;2.55;;;;;;;26.22;38.02;98667.06;5052287;28;20035;-76
2023/04/25 07:39:45;;;;;;;6.18;3.25;;;;;;;26.40;37.27;98659.38;5052413;28;20029;-76
2023/04/25 07:42:11;;;;;;;5.18;3.15;;;;;;;26.24;37.24;98670.34;5052375;28;20025;-76
2023/04/25 07:44:38;;;;;;;7.28;2.95;;;;;;;25.20;38.06;98664.72;5052396;28;20025;-76
2023/04/25 07:47:07;;;;;;;3.97;2.72;;;;;;;25.29;38.78;98647.63;5052423;28;20106;-76
2023/04/25 07:49:36;;;;;;;3.30;2.63;;;;;;;25.35;38.46;98644.19;5052162;28;20032;-76
2023/04/25 07:52:03;;;;;;;4.50;2.88;;;;;;;24.97;38.34;98656.88;5052275;28;20029;-76
2023/04/25 07:54:29;;;;;;;4.00;2.45;;;;;;;23.43;40.82;98674.25;5052261;28;20114;-76
2023/04/25 07:56:54;;;;;;;4.28;3.15;;;;;;;21.80;41.86;98674.84;5052385;28;20488;-76
2023/04/25 07:59:20;;;;;;;4.72;3.08;;;;;;;19.92;44.41;98682.94;5052098;28;20032;-76
2023/04/25 08:01:45;;;;;;;7.15;3.70;;;;;;;18.89;46.23;98675.53;5052583;28;20262;-76
2023/04/25 08:04:11;;;;;;;7.22;3.72;;;;;;;18.19;48.51;98673.31;5052102;28;20017;-75
2023/04/25 08:06:36;;;;;;;4.82;3.17;;;;;;;17.76;49.63;98670.38;5051670;28;20037;-75
2023/04/25 08:09:02;;;;;;;6.40;3.58;;;;;;;17.51;49.81;98672.56;5052276;28;20063;-75
2023/04/25 08:11:28;;;;;;;5.65;3.75;;;;;;;17.14;51.11;98660.09;5051955;28;20317;-75
2023/04/25 08:13:53;;;;;;;7.82;4.38;;;;;;;16.86;50.98;98668.78;5052137;28;20028;-75
2023/04/25 08:16:19;;;;;;;5.45;3.90;;;;;;;16.58;51.78;98679.03;5051783;28;20424;-75
2023/04/25 08:18:44;;;;;;;7.03;4.20;;;;;;;16.21;53.00;98689.25;5051992;28;20044;-75
2023/04/25 08:21:11;;;;;;;10.30;5.35;;;;;;;16.16;53.08;98679.16;5051642;28;20036;-75
2023/04/25 08:23:37;;;;;;;7.85;4.90;;;;;;;16.18;53.72;98684.25;5051810;28;20111;-75
2023/04/25 08:26:02;;;;;;;6.60;5.15;;;;;;;16.28;54.09;98689.59;5051621;28;20021;-76
2023/04/25 08:28:28;;;;;;;7.93;6.00;;;;;;;16.28;53.78;98679.91;5047956;28;20044;-75
2023/04/25 08:30:53;;;;;;;7.55;5.82;;;;;;;16.31;53.76;98681.44;5051536;28;20025;-75
2023/04/25 08:33:18;;;;;;;9.20;5.75;;;;;;;16.55;53.84;98673.22;5051548;28;20025;-75
2023/04/25 08:35:44;;;;;;;6.40;5.80;;;;;;;16.81;52.98;98673.59;5051770;28;20025;-75
2023/04/25 08:38:10;;;;;;;6.75;5.25;;;;;;;16.95;52.69;98662.72;5051877;28;20065;-76
2023/04/25 08:40:38;;;;;;;5.07;4.65;;;;;;;16.96;52.58;98686.25;5051581;28;20033;-76
2023/04/25 08:43:05;;;;;;;7.60;4.88;;;;;;;16.89;52.96;98663.25;5044720;28;20025;-76
2023/04/25 08:45:32;;;;;;;6.80;4.18;;;;;;;17.08;52.14;98694.84;5044836;28;20059;-75
2023/04/25 08:47:58;;;;;;;7.47;4.07;;;;;;;16.73;51.82;98660.28;5043272;28;20029;-75
2023/04/25 08:50:26;;;;;;;7.35;4.43;;;;;;;16.65;53.40;98693.34;5044475;28;20024;-76
2023/04/25 08:52:53;;;;;;;6.50;4.28;;;;;;;16.53;53.32;98698.81;5045318;28;20089;-75
2023/04/25 08:55:20;;;;;;;6.40;4.35;;;;;;;16.63;54.49;98686.53;5046984;28;20051;-76
2023/04/25 08:57:46;;;;;;;6.22;3.83;;;;;;;16.82;54.08;98683.19;5037493;28;20507;-76
2023/04/25 09:00:12;;;;;;;8.52;4.38;;;;;;;17.16;52.18;98702.06;5035449;28;20108;-75
2023/04/25 09:02:39;;;;;;;5.38;4.32;;;;;;;17.16;51.14;98689.75;5035399;28;20025;-76
2023/04/25 09:05:06;;;;;;;5.38;4.15;;;;;;;16.96;51.36;98683.59;5035376;28;20026;-75
2023/04/25 09:07:32;;;;;;;5.68;4.93;;;;;;;16.92;51.36;98684.84;5035346;28;20022;-75
2023/04/25 09:09:59;;;;;;;6.45;4.25;;;;;;;17.05;51.46;98708.28;5035614;28;20034;-76
2023/04/25 09:12:26;;;;;;;5.97;4.00;;;;;;;16.95;52.32;98700.38;5035197;28;20022;-76
2023/04/25 09:15:12;;;;;;;6.80;4.20;;;;;;;16.81;52.36;98698.13;5035242;28;20072;-76
2023/04/25 09:17:40;;;;;;;6.22;4.10;;;;;;;16.93;52.58;98710.19;5034923;28;20033;-76
2023/04/25 09:20:10;;;;;;;4.72;4.10;;;;;;;17.02;52.58;98694.56;5035381;28;20030;-76
2023/04/25 09:22:37;;;;;;;4.30;3.88;;;;;;;17.04;52.04;98690.84;5035028;28;20037;-75
2023/04/25 09:25:10;;;;;;;7.72;3.85;;;;;;;16.92;51.96;98692.75;5035189;28;20026;-75
2023/04/25 09:27:35;;;;;;;4.40;4.00;;;;;;;16.69;51.20;98684.22;5035007;28;20381;-75
2023/04/25 09:30:01;;;;;;;7.15;4.13;;;;;;;16.55;51.85;98692.44;5034904;28;20070;-75
2023/04/25 09:32:27;;;;;;;5.07;3.72;;;;;;;16.18;52.62;98703.50;5034924;28;20436;-75
2023/04/25 09:34:54;;;;;;;4.65;3.63;;;;;;;15.84;53.28;98696.78;5035055;28;20025;-75
2023/04/25 09:37:30;;;;;;;7.88;4.75;;;;;;;15.66;54.27;98715.72;5035062;28;20358;-75
2023/04/25 09:40:00;;;;;;;8.82;4.68;;;;;;;15.43;55.22;98727.25;5034867;28;20022;-75
2023/04/25 09:42:27;;;;;;;4.63;3.90;;;;;;;15.08;55.09;98725.66;5034546;28;20037;-75
2023/04/25 09:44:54;;;;;;;7.43;4.60;;;;;;;14.67;56.15;98702.72;5034928;28;20037;-75
2023/04/25 09:47:21;;;;;;;6.07;4.55;;;;;;;14.48;56.81;98706.78;5034645;28;20029;-75
2023/04/25 09:49:47;;;;;;;8.77;5.30;;;;;;;14.39;56.53;98701.38;5034872;28;20095;-75
2023/04/25 09:52:20;;;;;;;7.25;4.28;;;;;;;14.51;56.86;98707.50;5034763;28;20465;-75
2023/04/25 09:54:47;;;;;;;5.43;4.32;;;;;;;14.93;56.55;98719.84;5033849;28;20025;-75
2023/04/25 09:57:20;;;;;;;5.47;4.50;;;;;;;15.43;56.03;98722.84;5034475;28;20033;-75
2023/04/25 09:59:48;;;;;;;5.38;4.00;;;;;;;15.82;55.35;98703.97;5034416;28;20485;-75
2023/04/25 10:02:15;;;;;;;5.80;4.53;;;;;;;16.23;54.54;98721.50;5034564;28;20030;-75
2023/04/25 10:04:42;;;;;;;5.05;4.13;;;;;;;16.44;52.86;98721.47;5034178;28;20029;-75
2023/04/25 10:07:08;;;;;;;6.93;3.42;;;;;;;16.44;53.28;98708.34;5034289;28;20080;-75
2023/04/25 10:09:36;;;;;;;5.63;3.08;;;;;;;16.60;51.71;98716.56;5033914;28;20384;-75
2023/04/25 10:12:03;;;;;;;3.67;2.78;;;;;;;16.59;50.14;98724.56;5034396;28;20032;-75
2023/04/25 10:14:30;;;;;;;4.60;3.00;;;;;;;16.39;49.88;98697.34;5034126;28;20029;-75
2023/04/25 10:16:57;;;;;;;5.00;2.80;;;;;;;16.43;50.58;98702.25;5032978;28;20065;-75
2023/04/25 10:19:24;;;;;;;4.57;3.00;;;;;;;16.27;50.86;98691.38;5033977;28;20283;-75
2023/04/25 10:22:04;;;;;;;5.20;3.33;;;;;;;16.29;51.16;98713.09;5034110;28;20036;-75
2023/04/25 10:24:29;;;;;;;6.43;2.75;;;;;;;16.14;51.17;98688.97;5033957;28;20056;-75
2023/04/25 10:26:57;;;;;;;2.88;2.30;;;;;;;16.44;51.15;98710.97;5033695;28;20045;-75
2023/04/25 10:29:25;;;;;;;3.55;2.60;;;;;;;16.55;51.50;98702.97;5033820;28;20032;-75
2023/04/25 10:31:51;;;;;;;4.40;2.65;;;;;;;16.52;51.28;98702.38;5034045;28;20045;-75
2023/04/25 10:34:17;;;;;;;4.65;2.80;;;;;;;16.53;52.33;98676.00;5033839;28;20034;-75
2023/04/25 10:36:49;;;;;;;2.97;2.38;;;;;;;16.53;50.88;98677.78;5033493;28;20030;-75
2023/04/25 10:39:22;;;;;;;3.72;2.70;;;;;;;16.57;51.07;98695.78;5033835;28;20025;-75
2023/04/25 10:42:02;;;;;;;4.07;2.20;;;;;;;16.25;50.72;98679.31;5033816;28;20030;-75
2023/04/25 10:44:31;;;;;;;3.88;2.10;;;;;;;16.08;50.24;98697.34;5033565;28;20026;-75
2023/04/25 10:46:57;;;;;;;2.47;2.20;;;;;;;15.93;50.51;98683.72;5033468;28;20057;-75
2023/04/25 10:49:31;;;;;;;4.38;2.55;;;;;;;16.08;51.10;98707.03;5033537;28;20057;-75
2023/04/25 10:52:29;;;;;;;2.17;1.98;;;;;;;16.28;50.66;98690.41;5032358;28;20052;-75
2023/04/25 10:54:56;;;;;;;2.63;1.98;;;;;;;16.32;49.89;98654.19;5033421;28;20028;-75
2023/04/25 10:57:41;;;;;;;3.78;2.15;;;;;;;16.64;49.27;98701.34;5033543;28;20103;-75
2023/04/25 11:00:11;;;;;;;4.25;2.45;;;;;;;16.66;48.70;98678.38;5033527;28;20049;-75
2023/04/25 11:02:57;;;;;;;4.07;2.38;;;;;;;16.50;49.41;98678.06;5033190;28;20485;-75
2023/04/25 11:05:33;;;;;;;3.20;2.38;;;;;;;16.42;48.90;98683.97;5033061;28;20025;-75
2023/04/25 11:07:59;;;;;;;3.45;2.15;;;;;;;16.50;49.73;98702.53;5031985;28;20112;-75
2023/04/25 11:10:32;;;;;;;5.63;2.72;;;;;;;16.35;49.65;98699.44;5033086;28;20481;-75
2023/04/25 11:12:58;;;;;;;3.97;2.83;;;;;;;15.98;49.90;98701.72;5033209;28;20032;-75
2023/04/25 11:15:24;;;;;;;4.57;2.13;;;;;;;15.98;50.50;98682.50;5032736;28;20101;-75
2023/04/25 11:17:52;;;;;;;2.85;2.05;;;;;;;16.14;49.70;98682.88;5033426;28;20033;-75
2023/04/25 11:20:17;;;;;;;3.17;2.20;;;;;;;16.48;49.56;98701.84;5032871;28;20044;-76
2023/04/25 11:22:47;;;;;;;3.67;2.20;;;;;;;16.71;49.69;98687.53;5032814;28;20030;-75
2023/04/25 11:25:14;;;;;;;3.80;2.05;;;;;;;16.92;49.10;98691.91;5033182;28;20036;-75
2023/04/25 11:27:53;;;;;;;5.95;2.13;;;;;;;16.83;49.19;98680.41;5032430;28;20057;-76
2023/04/25 11:30:20;;;;;;;5.93;2.13;;;;;;;16.86;48.73;98709.06;5032737;28;20025;-75
2023/04/25 11:32:45;;;;;;;1.98;1.70;;;;;;;16.51;48.75;98688.41;5032452;28;20032;-76